メインページ
METAR-TAF:

METAR-TAF

空港 :

ミネアポリス・セントポール国際空港

ミネアポリス, ミネソタ州, アメリカ合衆国

緯度: 44-52-59N, 経度: 093-13-44W, 海抜: 256m

現時点の気象観測

当レポートは1時間13分前の11:53(UTC)に作成
西/南西の風 3kt
気温 7°C
湿度 76%
気圧 1019 hPa
視程: 16.1km
晴天

METAR: KMSP 261153Z 24003KT 10SM CLR 07/03 A3008 RMK AO2 SLP188 70010 T00720033 10100 20067 51020

時間: 08:06 (13:06 UTC)

予報

当レポートは1時間36分前の11:30(UTC)に作成
予報は26日の 12時(UTC)から 27日の 18時(UTC)まで有効
西/北西の風 8kt
視程: 10km
高度600ftの雲は散在している
高度9000ftの雲は散在している
26日の 13時(UTC)から 26日の 15時(UTC)まで一時的に
高度600ftの千切れ雲あり
26日の 1600時(UTC)から
西/北西の風 12kt、最大20ktの突風を伴う
視程: 10km
高度20000ftの雲はほとんどない
26日の 2000時(UTC)から
西の風 13kt、最大20ktの突風を伴う
視程: 10km
高度20000ftの雲はほとんどない
27日の 0000時(UTC)から
南西の風 9kt
視程: 10km
高度25000ftの雲はほとんどない
27日の 1600時(UTC)から
西の風 7kt
視程: 10km
高度10000ftの千切れ雲あり

TAF: KMSP 261130Z 2612/2718 29008KT P6SM SCT006 SCT090 TEMPO 2613/2615 BKN006 FM261600 29012G20KT P6SM FEW200 FM262000 26013G20KT P6SM FEW200 FM270000 23009KT P6SM FEW250 FM271600 26007KT P6SM BKN100

4,000以上の空港の気象観測と天気予報(METAR報とTAF報)

利用可能な観測所は地図上に黄色い丸と赤い丸で示す。

丸の上にカーソルを重ねると観測所名を参照できる。

次にクリックすると気象観測と天気予報を参照できる。

マップの切り替え:黒色「×」印の緑ボタンをクリックして拡大、「-」印の緑ボタンをクリックして縮小、緑色の三角印をクリックして隣りの地図に切り替え


METAR-TAF: